createdAt,value
2019-02-21T00:03:59.891Z,11.03
2019-02-21T00:09:05.121Z,11.33
2019-02-21T00:14:09.338Z,11.50
2019-02-21T00:19:13.393Z,11.40
2019-02-21T00:24:17.440Z,11.93
2019-02-21T00:29:21.478Z,11.63
2019-02-21T00:34:25.543Z,11.97
2019-02-21T00:39:29.553Z,11.43
2019-02-21T00:44:33.579Z,11.67
2019-02-21T00:49:37.602Z,11.50
2019-02-21T00:54:41.629Z,10.73
2019-02-21T00:59:45.672Z,10.63
2019-02-21T01:04:49.754Z,10.03
2019-02-21T01:09:53.855Z,9.87
2019-02-21T01:14:57.869Z,10.23
2019-02-21T01:20:01.900Z,10.30
2019-02-21T01:25:06.543Z,11.63
2019-02-21T01:30:10.795Z,10.87
2019-02-21T01:35:14.802Z,10.27
2019-02-21T01:40:18.850Z,10.63
2019-02-21T01:45:22.911Z,9.77
2019-02-21T01:50:26.944Z,9.40
2019-02-21T01:55:30.955Z,9.73
2019-02-21T02:00:35.049Z,9.20
2019-02-21T02:05:39.049Z,9.67
2019-02-21T02:10:43.111Z,11.93
2019-02-21T02:15:47.138Z,8.90
2019-02-21T02:20:51.169Z,9.23
2019-02-21T02:25:55.193Z,9.03
2019-02-21T02:30:59.221Z,11.77
2019-02-21T02:36:03.237Z,10.87
2019-02-21T02:41:07.274Z,12.73
2019-02-21T02:46:11.289Z,13.93
2019-02-21T02:51:15.343Z,13.97
2019-02-21T02:56:19.355Z,13.60
2019-02-21T03:01:34.363Z,15.17
2019-02-21T03:06:29.129Z,15.07
2019-02-21T03:11:33.154Z,16.00
2019-02-21T03:16:37.185Z,16.47
2019-02-21T03:21:42.133Z,16.27
2019-02-21T03:26:46.167Z,15.60
2019-02-21T03:31:54.925Z,17.37
2019-02-21T03:36:55.982Z,17.80
2019-02-21T03:42:00.012Z,18.63
2019-02-21T03:47:04.050Z,18.20
2019-02-21T03:52:08.077Z,19.10
2019-02-21T03:57:12.166Z,19.53
2019-02-21T04:02:16.283Z,20.03
2019-02-21T04:07:21.816Z,20.63
2019-02-21T04:12:26.279Z,20.13
2019-02-21T04:17:30.317Z,20.00
2019-02-21T04:22:34.329Z,21.87
2019-02-21T04:27:38.349Z,22.77
2019-02-21T04:32:42.380Z,23.17
2019-02-21T04:37:46.426Z,22.43
2019-02-21T04:42:50.551Z,23.97
2019-02-21T04:47:54.591Z,25.23
2019-02-21T04:52:58.674Z,25.87
2019-02-21T04:58:02.691Z,25.53
2019-02-21T05:03:06.717Z,26.03
2019-02-21T05:08:10.748Z,25.53
2019-02-21T05:13:14.778Z,26.30
2019-02-21T05:18:18.800Z,28.23
2019-02-21T05:23:22.823Z,28.33
2019-02-21T05:28:30.988Z,26.43
2019-02-21T05:33:57.022Z,28.70
2019-02-21T05:39:10.492Z,29.67
2019-02-21T05:44:45.468Z,30.27
2019-02-21T05:50:08.275Z,29.20
2019-02-21T05:55:24.043Z,29.77
2019-02-21T06:00:39.039Z,33.30
2019-02-21T06:06:05.109Z,32.47
2019-02-21T06:11:30.870Z,30.57
2019-02-21T06:16:56.055Z,30.37
2019-02-21T06:22:28.086Z,30.43
2019-02-21T06:27:39.025Z,30.90
2019-02-21T06:32:43.048Z,31.27
2019-02-21T06:37:47.079Z,29.90
2019-02-21T06:42:51.113Z,31.90
2019-02-21T06:47:55.115Z,31.53
2019-02-21T06:52:59.410Z,31.10
2019-02-21T06:58:03.449Z,31.10
2019-02-21T07:03:15.513Z,31.00
2019-02-21T07:08:13.246Z,30.00
2019-02-21T07:13:26.156Z,29.77
2019-02-21T07:18:23.068Z,30.33
2019-02-21T07:23:27.752Z,32.20
2019-02-21T07:28:31.805Z,29.43
2019-02-21T07:33:35.859Z,32.63
2019-02-21T07:38:39.882Z,29.90
2019-02-21T07:43:43.933Z,28.73
2019-02-21T07:48:47.959Z,28.67
2019-02-21T07:53:52.008Z,25.97
2019-02-21T07:58:57.685Z,26.70
2019-02-21T08:04:01.731Z,27.27
2019-02-21T08:09:07.050Z,27.80
2019-02-21T08:14:11.079Z,26.30
2019-02-21T08:19:15.130Z,27.60
2019-02-21T08:24:19.150Z,30.60
2019-02-21T08:29:23.212Z,29.73
2019-02-21T08:34:32.050Z,29.47
2019-02-21T08:39:36.080Z,30.90
2019-02-21T08:44:40.129Z,29.83
2019-02-21T08:49:44.136Z,28.87
2019-02-21T08:54:48.166Z,28.80
2019-02-21T08:59:52.178Z,31.20
2019-02-21T09:04:56.249Z,29.30
2019-02-21T09:10:00.386Z,30.30
2019-02-21T09:15:04.981Z,30.57
2019-02-21T09:20:09.834Z,28.47
2019-02-21T09:25:13.901Z,30.07
2019-02-21T09:30:18.727Z,29.23
2019-02-21T09:35:22.737Z,29.60
2019-02-21T09:40:28.502Z,28.77
2019-02-21T09:45:33.199Z,28.20
2019-02-21T09:50:37.355Z,29.17
2019-02-21T09:55:41.401Z,28.23
2019-02-21T10:00:45.444Z,27.27
2019-02-21T10:05:49.953Z,28.17
2019-02-21T10:10:54.168Z,26.43
2019-02-21T10:15:58.290Z,27.03
2019-02-21T10:21:02.627Z,27.03
2019-02-21T10:26:06.753Z,24.37
2019-02-21T10:31:10.762Z,26.37
2019-02-21T10:36:14.791Z,26.23
2019-02-21T10:41:18.959Z,24.40
2019-02-21T10:46:23.098Z,25.20
2019-02-21T10:51:27.138Z,23.73
2019-02-21T10:56:31.171Z,23.20
2019-02-21T11:01:35.195Z,21.80
2019-02-21T11:06:39.235Z,20.83
2019-02-21T11:11:43.288Z,20.67
2019-02-21T11:16:47.330Z,20.77
2019-02-21T11:21:51.392Z,18.07
2019-02-21T11:26:55.571Z,20.82
2019-02-21T11:31:59.601Z,20.13
2019-02-21T11:37:06.880Z,19.13
2019-02-21T11:42:10.996Z,19.30
2019-02-21T11:47:15.051Z,19.27
2019-02-21T11:52:19.095Z,18.35
2019-02-21T11:57:23.423Z,17.37
2019-02-21T12:02:27.456Z,17.73
2019-02-21T12:07:31.549Z,16.97
2019-02-21T12:12:42.671Z,17.17
2019-02-21T12:17:46.790Z,16.62
2019-02-21T12:22:50.887Z,16.02
2019-02-21T12:27:55.039Z,16.77
2019-02-21T12:32:59.129Z,16.95
2019-02-21T12:38:03.187Z,16.02
2019-02-21T12:43:07.398Z,15.67
2019-02-21T12:48:14.018Z,15.88
2019-02-21T12:53:17.779Z,12.90
2019-02-21T12:58:21.804Z,13.03
2019-02-21T13:03:25.960Z,13.00
2019-02-21T13:08:29.989Z,12.80
2019-02-21T13:13:34.063Z,11.67
2019-02-21T13:18:38.304Z,12.53
2019-02-21T13:23:43.024Z,12.83
2019-02-21T13:28:47.233Z,10.23
2019-02-21T13:33:51.274Z,9.87
2019-02-21T13:38:55.313Z,9.75
2019-02-21T13:43:59.331Z,9.38
2019-02-21T13:49:03.361Z,9.57
2019-02-21T13:54:07.406Z,10.08
2019-02-21T13:59:11.447Z,10.63
2019-02-21T14:04:15.505Z,10.43
2019-02-21T14:09:19.633Z,11.28
2019-02-21T14:14:23.676Z,11.07
2019-02-21T14:19:27.740Z,10.67
2019-02-21T14:24:36.804Z,11.57
2019-02-21T14:29:39.542Z,11.20
2019-02-21T14:34:43.287Z,11.63
2019-02-21T14:39:48.299Z,12.83
2019-02-21T14:44:52.381Z,13.77
2019-02-21T14:49:56.370Z,14.10
2019-02-21T14:55:00.512Z,13.30
2019-02-21T15:00:05.620Z,14.30
2019-02-21T15:05:10.189Z,14.20
2019-02-21T15:10:15.648Z,14.47
2019-02-21T15:15:21.955Z,14.20
2019-02-21T15:20:36.268Z,13.50
2019-02-21T15:25:31.626Z,12.90
2019-02-21T15:30:35.671Z,12.73
2019-02-21T15:35:39.735Z,12.57
2019-02-21T15:40:43.745Z,12.83
2019-02-21T15:45:47.830Z,12.77
2019-02-21T15:50:51.857Z,15.10
2019-02-21T15:55:55.897Z,12.97
2019-02-21T16:00:59.929Z,12.90
2019-02-21T16:06:04.182Z,12.83
2019-02-21T16:11:08.227Z,11.97
2019-02-21T16:16:12.625Z,12.37
2019-02-21T16:21:16.797Z,12.57
2019-02-21T16:26:20.860Z,17.80
2019-02-21T16:31:24.914Z,16.70
2019-02-21T16:36:28.963Z,12.37
2019-02-21T16:41:36.385Z,12.17
2019-02-21T16:46:38.932Z,12.63
2019-02-21T16:51:43.004Z,15.00
2019-02-21T16:56:47.160Z,14.13
2019-02-21T17:01:51.248Z,11.50
2019-02-21T17:06:55.353Z,13.53
2019-02-21T17:11:59.398Z,13.83
2019-02-21T17:17:03.422Z,16.17
2019-02-21T17:22:07.475Z,17.37
2019-02-21T17:27:11.728Z,13.97
2019-02-21T17:32:15.791Z,13.57
2019-02-21T17:37:24.898Z,14.83
2019-02-21T17:42:25.810Z,14.83
2019-02-21T17:47:32.599Z,15.20
2019-02-21T17:52:35.805Z,14.37
2019-02-21T17:57:39.896Z,16.30
2019-02-21T18:02:43.933Z,16.27
2019-02-21T18:07:48.218Z,19.57
2019-02-21T18:12:52.398Z,20.30
2019-02-21T18:17:56.503Z,20.97
2019-02-21T18:23:00.575Z,21.93
2019-02-21T18:28:04.569Z,27.07
2019-02-21T18:33:08.606Z,27.23
2019-02-21T18:38:12.650Z,30.57
2019-02-21T18:43:16.735Z,32.27
2019-02-21T18:48:20.758Z,36.33
2019-02-21T18:53:24.793Z,36.00
2019-02-21T18:58:28.831Z,38.47
2019-02-21T19:03:32.917Z,46.03
2019-02-21T19:08:37.109Z,46.37
2019-02-21T19:13:41.096Z,45.20
2019-02-21T19:18:45.152Z,45.37
2019-02-21T19:23:49.264Z,43.37
2019-02-21T19:28:53.446Z,42.27
2019-02-21T19:33:57.544Z,74.57
2019-02-21T19:39:01.578Z,42.37
2019-02-21T19:44:08.829Z,45.50
2019-02-21T19:49:11.742Z,46.33
2019-02-21T19:54:15.821Z,48.30
2019-02-21T19:59:19.926Z,42.17
2019-02-21T20:04:24.066Z,47.07
2019-02-21T20:09:28.306Z,48.83
2019-02-21T20:14:32.517Z,49.70
2019-02-21T20:19:36.598Z,48.30
2019-02-21T20:24:40.774Z,47.63
2019-02-21T20:29:44.831Z,46.90
2019-02-21T20:34:48.941Z,49.83
2019-02-21T20:39:55.026Z,43.27
2019-02-21T20:44:58.796Z,46.23
2019-02-21T20:50:02.870Z,48.57
2019-02-21T20:55:06.947Z,47.77
2019-02-21T21:00:12.125Z,46.00
2019-02-21T21:05:16.219Z,47.97
2019-02-21T21:10:20.391Z,47.10
2019-02-21T21:15:24.461Z,47.33
2019-02-21T21:20:28.688Z,45.30
2019-02-21T21:25:32.754Z,48.17
2019-02-21T21:30:36.808Z,46.33
2019-02-21T21:35:40.850Z,42.43
2019-02-21T21:40:44.905Z,41.83
2019-02-21T21:45:48.930Z,41.07
2019-02-21T21:50:53.043Z,41.20
2019-02-21T21:55:57.072Z,45.67
2019-02-21T22:01:01.090Z,45.17
2019-02-21T22:06:05.205Z,45.70
2019-02-21T22:11:09.238Z,42.67
2019-02-21T22:16:13.268Z,38.63
2019-02-21T22:21:17.504Z,44.30
2019-02-21T22:26:22.176Z,45.67
2019-02-21T22:31:26.283Z,46.50
2019-02-21T22:36:30.318Z,44.40
2019-02-21T22:41:34.401Z,46.57
2019-02-21T22:46:38.373Z,42.60
2019-02-21T22:51:42.477Z,46.23
2019-02-21T22:56:46.588Z,44.07
2019-02-21T23:01:50.610Z,42.40
2019-02-21T23:07:01.921Z,45.40
2019-02-21T23:12:06.021Z,38.87
2019-02-21T23:17:10.043Z,37.20
2019-02-21T23:22:14.043Z,33.73
2019-02-21T23:27:18.045Z,32.97
2019-02-21T23:32:22.034Z,30.57
2019-02-21T23:37:26.069Z,28.47
2019-02-21T23:42:30.114Z,27.43
2019-02-21T23:47:34.130Z,26.87
2019-02-21T23:52:38.151Z,23.23
2019-02-21T23:57:42.177Z,25.20
